• Join FlightAware (Why Join?)
  • Login
  • US Flag 
12:41AM EST


 

Airport Tracker/Info


-or-


 

Live Flight TrackerFlight Track Log ✈ AFL150 ✈ 20-Oct-2013 ✈ UUEE / SVO - MUHA / HAV

Flight Track Log - Related Links

Times and Time Zones

All times are in EDT time to prevent confusion due to time zone crossing. See the AFL150 flight status page for this flight to view local times or setup timezone preferences in your user account.

Time Position Orientation Groundspeed Altitude Reporting Facility
EDT Latitude Longitude Course Direction KTS MPH feet Rate Location/Type
06:51PM 23.4107 -82.1531 180° South  Level Estimated
06:52PM 23.3089 -82.2151 180° South  Level Estimated
06:52PM 26.2550 -82.1530 180° South 437 503 37,000  Level FlightAware
06:53PM 23.2071 -82.2770 180° South  Level Estimated
06:53PM 26.2098 -82.1606 189° South 444 511 37,000  Level FlightAware ADS-B (KMCO)
06:54PM 26.1220 -82.1750 188° South 435 501 37,000  Level FlightAware
06:54PM 26.0370 -82.1890 188° South 442 509 37,000  Level FlightAware
06:55PM 25.9610 -82.2020 189° South 442 509 37,000  Level FlightAware
06:56PM 25.8680 -82.2170 188° South 436 502 37,000  Level FlightAware
06:56PM 25.7970 -82.2280 188° South 436 502 37,000  Level FlightAware
06:57PM 25.7040 -82.2440 189° South 437 503 37,000  Level FlightAware
06:58PM 25.6470 -82.2530 188° South 436 502 37,000  Level FlightAware
06:58PM 25.5380 -82.2710 188° South 436 502 37,000  Level FlightAware
06:59PM 25.4630 -82.2830 188° South 437 503 37,000  Level FlightAware
07:00PM 25.3950 -82.2940 188° South 438 504 37,000  Level FlightAware
07:00PM 25.3200 -82.3060 188° South 437 503 37,000  Level FlightAware
07:01PM 25.2480 -82.3180 189° South 438 504 37,000  Level FlightAware
07:01PM 25.1750 -82.3300 188° South 439 505 37,000  Level FlightAware
07:02PM 25.1040 -82.3410 188° South 439 505 37,000  Level FlightAware
07:03PM 25.0330 -82.3520 188° South 439 505 37,000  Level FlightAware
07:03PM 24.9420 -82.3680 189° South 440 506 37,000 -180 Level FlightAware
07:04PM 24.8760 -82.3780 188° South 452 520 36,800 -780 Descending FlightAware
07:04PM 24.8020 -82.3900 188° South 452 520 36,200 -1,200 Descending FlightAware
07:05PM 24.7170 -82.4040 189° South 439 505 35,200 -1,740 Descending FlightAware
07:06PM 24.6330 -82.4180 189° South 438 504 33,800 -1,140 Descending FlightAware
07:06PM 24.5600 -82.4290 188° South 438 504 33,700 -120 Descending FlightAware
07:07PM 24.5000 -82.4380 188° South 438 504 33,700  Level FlightAware
07:08PM 24.4370 -82.4480 188° South 438 504 33,700  Level FlightAware
07:08PM 24.3790 -82.4570 188° South 438 504 33,700  Level FlightAware
07:09PM 24.3180 -82.4660 188° South 438 504 33,700  Level FlightAware
07:09PM 24.2560 -82.4760 188° South 438 504 33,700  Level FlightAware
07:10PM 24.1950 -82.4850 188° South 438 504 33,700  Level FlightAware
07:11PM 24.1330 -82.4950 188° South 438 504 33,700  Level FlightAware
07:11PM 24.0520 -82.5070 188° South 438 504 33,700  Level FlightAware
07:12PM 23.9880 -82.5170 188° South 438 504 33,700  Level FlightAware
07:13PM 23.9250 -82.5270 188° South 438 504 33,700  Level FlightAware
07:13PM 23.8640 -82.5360 188° South 438 504 33,700  Level FlightAware
07:14PM 23.8040 -82.5450 188° South 438 504 33,700  Level FlightAware
07:14PM 23.7430 -82.5550 189° South 438 504 33,700  Level FlightAware
07:15PM 23.6810 -82.5640 188° South 438 504 33,700  Level FlightAware
07:16PM 23.6200 -82.5740 189° South 438 504 33,700  Level FlightAware
07:19PM 23.2985 -82.4898 173° South  Level Estimated
07:20PM 23.1850 -82.4601 180° South  Level Estimated
07:21PM 23.0716 -82.4305 170° South  Level Estimated
07:22PM 22.9891 -82.4091 180° South  Level Estimated
07:23PM 22.9891 -82.4091 180° South  Level Estimated
07:24PM 22.9891 -82.4091 180° South  Level Estimated
07:25PM 22.9891 -82.4091 180° South  Level Estimated
07:26PM 22.9891 -82.4091 180° South  Level Estimated
07:27PM 22.9891 -82.4091 180° South  Level Estimated
07:28PM 22.9891 -82.4091 180° South  Level Estimated
07:29PM 22.9891 -82.4091 180° South  Level Estimated
07:30PM 22.9891 -82.4091 180° South  Level Estimated
07:31PM 22.9891 -82.4091 180° South  Level Estimated
07:32PM 22.9891 -82.4091 180° South  Level Estimated
07:33PM 22.9891 -82.4091 180° South  Level Estimated
07:34PM 22.9891 -82.4091 180° South  Level Estimated
07:35PM 22.9891 -82.4091 180° South  Level Estimated
07:36PM 22.9891 -82.4091 180° South  Level Estimated
07:37PM 22.9891 -82.4091 180° South  Level Estimated
07:38PM 22.9891 -82.4091 180° South  Level Estimated
07:39PM 22.9891 -82.4091 180° South  Level Estimated
07:40PM 22.9891 -82.4091 180° South  Level Estimated